sensor_id;sensor_type;location;lat;lon;timestamp;P1;durP1;ratioP1;P2;durP2;ratioP2
19255;SDS011;9762;52.490;13.410;2023-05-02T00:01:09;5.90;;;4.47;;
19255;SDS011;9762;52.490;13.410;2023-05-02T00:03:35;7.53;;;4.23;;
19255;SDS011;9762;52.490;13.410;2023-05-02T00:06:01;6.13;;;4.60;;
19255;SDS011;9762;52.490;13.410;2023-05-02T00:08:26;5.40;;;4.40;;
19255;SDS011;9762;52.490;13.410;2023-05-02T00:10:52;7.23;;;4.53;;
19255;SDS011;9762;52.490;13.410;2023-05-02T00:13:18;6.50;;;4.27;;
19255;SDS011;9762;52.490;13.410;2023-05-02T00:15:43;6.90;;;4.53;;
19255;SDS011;9762;52.490;13.410;2023-05-02T00:18:10;6.77;;;4.63;;
19255;SDS011;9762;52.490;13.410;2023-05-02T00:20:35;8.10;;;4.27;;
19255;SDS011;9762;52.490;13.410;2023-05-02T00:23:03;4.60;;;4.20;;
19255;SDS011;9762;52.490;13.410;2023-05-02T00:25:29;5.83;;;4.47;;
19255;SDS011;9762;52.490;13.410;2023-05-02T00:27:54;5.97;;;4.30;;
19255;SDS011;9762;52.490;13.410;2023-05-02T00:30:20;4.17;;;3.83;;
19255;SDS011;9762;52.490;13.410;2023-05-02T00:32:45;5.07;;;4.57;;
19255;SDS011;9762;52.490;13.410;2023-05-02T00:35:11;6.93;;;4.43;;
19255;SDS011;9762;52.490;13.410;2023-05-02T00:37:37;7.00;;;4.40;;
19255;SDS011;9762;52.490;13.410;2023-05-02T00:40:03;5.43;;;4.93;;
19255;SDS011;9762;52.490;13.410;2023-05-02T00:42:29;5.57;;;4.67;;
19255;SDS011;9762;52.490;13.410;2023-05-02T00:44:58;6.00;;;4.67;;
19255;SDS011;9762;52.490;13.410;2023-05-02T00:47:24;6.43;;;4.67;;
19255;SDS011;9762;52.490;13.410;2023-05-02T00:49:50;6.97;;;4.70;;
19255;SDS011;9762;52.490;13.410;2023-05-02T00:52:15;5.07;;;4.60;;
19255;SDS011;9762;52.490;13.410;2023-05-02T00:54:41;7.53;;;4.67;;
19255;SDS011;9762;52.490;13.410;2023-05-02T00:57:08;5.00;;;4.60;;
19255;SDS011;9762;52.490;13.410;2023-05-02T00:59:34;4.57;;;4.23;;
19255;SDS011;9762;52.490;13.410;2023-05-02T01:02:10;4.73;;;3.93;;
19255;SDS011;9762;52.490;13.410;2023-05-02T01:04:49;5.97;;;4.20;;
19255;SDS011;9762;52.490;13.410;2023-05-02T01:15:05;4.87;;;4.13;;
19255;SDS011;9762;52.490;13.410;2023-05-02T01:17:34;5.17;;;4.37;;
19255;SDS011;9762;52.490;13.410;2023-05-02T01:20:04;4.93;;;4.37;;
19255;SDS011;9762;52.490;13.410;2023-05-02T01:22:32;7.03;;;4.83;;
19255;SDS011;9762;52.490;13.410;2023-05-02T01:30:21;6.53;;;4.00;;
19255;SDS011;9762;52.490;13.410;2023-05-02T01:32:49;6.47;;;4.30;;
19255;SDS011;9762;52.490;13.410;2023-05-02T01:35:16;6.00;;;4.50;;
19255;SDS011;9762;52.490;13.410;2023-05-02T01:37:44;5.20;;;4.17;;
19255;SDS011;9762;52.490;13.410;2023-05-02T01:40:13;5.20;;;4.80;;
19255;SDS011;9762;52.490;13.410;2023-05-02T01:42:42;6.83;;;4.77;;
19255;SDS011;9762;52.490;13.410;2023-05-02T01:45:10;7.90;;;4.50;;
19255;SDS011;9762;52.490;13.410;2023-05-02T01:47:37;4.60;;;4.10;;
19255;SDS011;9762;52.490;13.410;2023-05-02T01:50:04;6.47;;;4.47;;
19255;SDS011;9762;52.490;13.410;2023-05-02T01:52:33;4.83;;;4.40;;
19255;SDS011;9762;52.490;13.410;2023-05-02T01:55:01;9.20;;;4.73;;
19255;SDS011;9762;52.490;13.410;2023-05-02T01:57:29;6.27;;;4.27;;
19255;SDS011;9762;52.490;13.410;2023-05-02T01:59:55;6.00;;;4.47;;
19255;SDS011;9762;52.490;13.410;2023-05-02T02:02:23;7.97;;;4.50;;
19255;SDS011;9762;52.490;13.410;2023-05-02T02:04:51;6.53;;;4.33;;
19255;SDS011;9762;52.490;13.410;2023-05-02T02:07:19;5.33;;;4.07;;
19255;SDS011;9762;52.490;13.410;2023-05-02T02:09:45;4.60;;;4.20;;
19255;SDS011;9762;52.490;13.410;2023-05-02T02:12:11;4.87;;;4.43;;
19255;SDS011;9762;52.490;13.410;2023-05-02T02:15:39;4.87;;;4.30;;
19255;SDS011;9762;52.490;13.410;2023-05-02T02:20:19;5.67;;;3.83;;
19255;SDS011;9762;52.490;13.410;2023-05-02T02:22:46;4.47;;;4.13;;
19255;SDS011;9762;52.490;13.410;2023-05-02T02:25:13;4.23;;;3.93;;
19255;SDS011;9762;52.490;13.410;2023-05-02T02:27:40;10.47;;;4.13;;
19255;SDS011;9762;52.490;13.410;2023-05-02T02:30:07;7.97;;;4.00;;
19255;SDS011;9762;52.490;13.410;2023-05-02T02:32:33;8.50;;;5.30;;
19255;SDS011;9762;52.490;13.410;2023-05-02T02:34:59;5.00;;;4.50;;
19255;SDS011;9762;52.490;13.410;2023-05-02T02:37:30;6.00;;;4.53;;
19255;SDS011;9762;52.490;13.410;2023-05-02T02:40:14;9.57;;;4.60;;
19255;SDS011;9762;52.490;13.410;2023-05-02T02:42:54;7.83;;;4.83;;
19255;SDS011;9762;52.490;13.410;2023-05-02T02:45:49;6.77;;;4.80;;
19255;SDS011;9762;52.490;13.410;2023-05-02T02:48:35;7.43;;;4.33;;
19255;SDS011;9762;52.490;13.410;2023-05-02T02:51:28;5.63;;;4.70;;
19255;SDS011;9762;52.490;13.410;2023-05-02T02:53:59;9.97;;;5.07;;
19255;SDS011;9762;52.490;13.410;2023-05-02T02:56:41;8.60;;;4.87;;
19255;SDS011;9762;52.490;13.410;2023-05-02T02:59:26;6.83;;;4.57;;
19255;SDS011;9762;52.490;13.410;2023-05-02T03:02:05;6.83;;;4.60;;
19255;SDS011;9762;52.490;13.410;2023-05-02T03:04:33;8.73;;;5.10;;
19255;SDS011;9762;52.490;13.410;2023-05-02T03:07:01;8.07;;;4.57;;
19255;SDS011;9762;52.490;13.410;2023-05-02T03:09:27;6.13;;;4.63;;
19255;SDS011;9762;52.490;13.410;2023-05-02T03:11:57;8.20;;;4.53;;
19255;SDS011;9762;52.490;13.410;2023-05-02T03:14:23;4.53;;;4.13;;
19255;SDS011;9762;52.490;13.410;2023-05-02T03:16:48;8.47;;;3.70;;
19255;SDS011;9762;52.490;13.410;2023-05-02T03:19:14;6.60;;;3.97;;
19255;SDS011;9762;52.490;13.410;2023-05-02T03:21:40;5.30;;;3.43;;
19255;SDS011;9762;52.490;13.410;2023-05-02T03:24:07;3.73;;;3.43;;
19255;SDS011;9762;52.490;13.410;2023-05-02T03:26:32;7.27;;;3.67;;
19255;SDS011;9762;52.490;13.410;2023-05-02T03:28:58;5.07;;;3.83;;
19255;SDS011;9762;52.490;13.410;2023-05-02T03:31:24;3.47;;;3.00;;
19255;SDS011;9762;52.490;13.410;2023-05-02T03:33:49;3.30;;;3.10;;
19255;SDS011;9762;52.490;13.410;2023-05-02T03:36:15;4.67;;;3.33;;
19255;SDS011;9762;52.490;13.410;2023-05-02T03:38:41;3.77;;;3.07;;
19255;SDS011;9762;52.490;13.410;2023-05-02T03:41:07;4.00;;;3.53;;
19255;SDS011;9762;52.490;13.410;2023-05-02T03:43:32;4.70;;;3.67;;
19255;SDS011;9762;52.490;13.410;2023-05-02T03:46:03;4.07;;;3.60;;
19255;SDS011;9762;52.490;13.410;2023-05-02T03:48:31;5.57;;;3.70;;
19255;SDS011;9762;52.490;13.410;2023-05-02T03:50:57;4.17;;;3.63;;
19255;SDS011;9762;52.490;13.410;2023-05-02T03:53:23;4.60;;;3.87;;
19255;SDS011;9762;52.490;13.410;2023-05-02T03:55:48;7.83;;;4.40;;
19255;SDS011;9762;52.490;13.410;2023-05-02T03:58:14;6.23;;;3.63;;
19255;SDS011;9762;52.490;13.410;2023-05-02T04:00:40;5.00;;;4.10;;
19255;SDS011;9762;52.490;13.410;2023-05-02T04:03:06;5.40;;;4.13;;
19255;SDS011;9762;52.490;13.410;2023-05-02T04:05:32;9.67;;;4.00;;
19255;SDS011;9762;52.490;13.410;2023-05-02T04:07:58;6.17;;;4.03;;
19255;SDS011;9762;52.490;13.410;2023-05-02T04:10:23;6.60;;;4.10;;
19255;SDS011;9762;52.490;13.410;2023-05-02T04:12:49;7.07;;;4.23;;
19255;SDS011;9762;52.490;13.410;2023-05-02T04:15:15;5.13;;;3.57;;
19255;SDS011;9762;52.490;13.410;2023-05-02T04:17:40;4.47;;;3.63;;
19255;SDS011;9762;52.490;13.410;2023-05-02T04:20:06;5.67;;;3.60;;
19255;SDS011;9762;52.490;13.410;2023-05-02T04:22:33;5.80;;;3.57;;
19255;SDS011;9762;52.490;13.410;2023-05-02T04:24:58;4.40;;;3.97;;
19255;SDS011;9762;52.490;13.410;2023-05-02T04:27:24;4.07;;;3.10;;
19255;SDS011;9762;52.490;13.410;2023-05-02T04:29:51;3.80;;;3.37;;
19255;SDS011;9762;52.490;13.410;2023-05-02T04:32:17;4.10;;;3.20;;
19255;SDS011;9762;52.490;13.410;2023-05-02T04:34:43;4.40;;;3.90;;
19255;SDS011;9762;52.490;13.410;2023-05-02T04:37:08;4.13;;;3.40;;
19255;SDS011;9762;52.490;13.410;2023-05-02T04:39:34;4.17;;;3.10;;
19255;SDS011;9762;52.490;13.410;2023-05-02T04:42:00;4.70;;;3.13;;
19255;SDS011;9762;52.490;13.410;2023-05-02T04:44:25;3.87;;;3.33;;
19255;SDS011;9762;52.490;13.410;2023-05-02T04:46:51;3.63;;;3.10;;
19255;SDS011;9762;52.490;13.410;2023-05-02T04:49:17;4.77;;;2.97;;
19255;SDS011;9762;52.490;13.410;2023-05-02T04:51:43;6.93;;;3.77;;
19255;SDS011;9762;52.490;13.410;2023-05-02T04:54:09;3.97;;;3.00;;
19255;SDS011;9762;52.490;13.410;2023-05-02T04:56:35;6.43;;;3.17;;
19255;SDS011;9762;52.490;13.410;2023-05-02T04:59:01;11.10;;;3.67;;
19255;SDS011;9762;52.490;13.410;2023-05-02T05:01:26;3.60;;;3.30;;
19255;SDS011;9762;52.490;13.410;2023-05-02T05:03:52;3.93;;;3.57;;
19255;SDS011;9762;52.490;13.410;2023-05-02T05:06:18;3.53;;;3.20;;
19255;SDS011;9762;52.490;13.410;2023-05-02T05:08:44;9.53;;;3.60;;
19255;SDS011;9762;52.490;13.410;2023-05-02T05:11:10;4.10;;;3.40;;
19255;SDS011;9762;52.490;13.410;2023-05-02T05:13:36;5.67;;;3.37;;
19255;SDS011;9762;52.490;13.410;2023-05-02T05:16:02;5.27;;;3.47;;
19255;SDS011;9762;52.490;13.410;2023-05-02T05:18:28;5.13;;;2.97;;
19255;SDS011;9762;52.490;13.410;2023-05-02T05:20:54;5.57;;;3.17;;
19255;SDS011;9762;52.490;13.410;2023-05-02T05:23:20;5.67;;;3.93;;
19255;SDS011;9762;52.490;13.410;2023-05-02T05:25:45;6.07;;;3.57;;
19255;SDS011;9762;52.490;13.410;2023-05-02T05:28:11;5.80;;;4.43;;
19255;SDS011;9762;52.490;13.410;2023-05-02T05:30:37;9.13;;;4.17;;
19255;SDS011;9762;52.490;13.410;2023-05-02T05:33:02;6.07;;;4.07;;
19255;SDS011;9762;52.490;13.410;2023-05-02T05:35:28;7.27;;;4.10;;
19255;SDS011;9762;52.490;13.410;2023-05-02T05:37:56;5.53;;;3.80;;
19255;SDS011;9762;52.490;13.410;2023-05-02T05:40:21;10.80;;;4.27;;
19255;SDS011;9762;52.490;13.410;2023-05-02T05:42:47;6.17;;;3.80;;
19255;SDS011;9762;52.490;13.410;2023-05-02T05:45:13;5.97;;;3.60;;
19255;SDS011;9762;52.490;13.410;2023-05-02T05:47:40;5.20;;;3.87;;
19255;SDS011;9762;52.490;13.410;2023-05-02T05:50:06;5.23;;;4.30;;
19255;SDS011;9762;52.490;13.410;2023-05-02T05:52:32;6.87;;;6.17;;
19255;SDS011;9762;52.490;13.410;2023-05-02T05:54:57;9.77;;;4.93;;
19255;SDS011;9762;52.490;13.410;2023-05-02T05:57:23;5.37;;;4.83;;
19255;SDS011;9762;52.490;13.410;2023-05-02T05:59:49;6.23;;;4.50;;
19255;SDS011;9762;52.490;13.410;2023-05-02T06:02:15;7.77;;;4.87;;
19255;SDS011;9762;52.490;13.410;2023-05-02T06:04:41;9.17;;;4.60;;
19255;SDS011;9762;52.490;13.410;2023-05-02T06:07:07;9.37;;;4.87;;
19255;SDS011;9762;52.490;13.410;2023-05-02T06:09:32;10.10;;;5.23;;
19255;SDS011;9762;52.490;13.410;2023-05-02T06:11:59;8.30;;;5.00;;
19255;SDS011;9762;52.490;13.410;2023-05-02T06:14:26;6.00;;;5.43;;
19255;SDS011;9762;52.490;13.410;2023-05-02T06:16:52;6.67;;;5.43;;
19255;SDS011;9762;52.490;13.410;2023-05-02T06:19:17;6.40;;;5.03;;
19255;SDS011;9762;52.490;13.410;2023-05-02T06:21:43;8.23;;;7.07;;
19255;SDS011;9762;52.490;13.410;2023-05-02T06:24:08;6.60;;;5.50;;
19255;SDS011;9762;52.490;13.410;2023-05-02T06:26:34;6.70;;;5.50;;
19255;SDS011;9762;52.490;13.410;2023-05-02T06:29:00;7.97;;;5.23;;
19255;SDS011;9762;52.490;13.410;2023-05-02T06:31:26;6.63;;;5.60;;
19255;SDS011;9762;52.490;13.410;2023-05-02T06:33:52;11.07;;;6.03;;
19255;SDS011;9762;52.490;13.410;2023-05-02T06:36:17;10.67;;;5.83;;
19255;SDS011;9762;52.490;13.410;2023-05-02T06:38:43;8.80;;;6.07;;
19255;SDS011;9762;52.490;13.410;2023-05-02T06:41:12;7.53;;;6.53;;
19255;SDS011;9762;52.490;13.410;2023-05-02T06:43:38;8.50;;;6.67;;
19255;SDS011;9762;52.490;13.410;2023-05-02T06:46:04;8.13;;;6.53;;
19255;SDS011;9762;52.490;13.410;2023-05-02T06:48:30;8.67;;;6.00;;
19255;SDS011;9762;52.490;13.410;2023-05-02T06:50:56;8.50;;;6.63;;
19255;SDS011;9762;52.490;13.410;2023-05-02T06:53:21;8.67;;;7.33;;
19255;SDS011;9762;52.490;13.410;2023-05-02T06:55:47;10.57;;;7.10;;
19255;SDS011;9762;52.490;13.410;2023-05-02T06:58:13;11.20;;;7.87;;
19255;SDS011;9762;52.490;13.410;2023-05-02T07:00:39;8.60;;;6.80;;
19255;SDS011;9762;52.490;13.410;2023-05-02T07:03:05;10.77;;;7.67;;
19255;SDS011;9762;52.490;13.410;2023-05-02T07:05:30;10.00;;;7.07;;
19255;SDS011;9762;52.490;13.410;2023-05-02T07:07:56;12.30;;;7.37;;
19255;SDS011;9762;52.490;13.410;2023-05-02T07:10:21;7.40;;;6.70;;
19255;SDS011;9762;52.490;13.410;2023-05-02T07:12:47;7.43;;;6.57;;
19255;SDS011;9762;52.490;13.410;2023-05-02T07:15:13;10.43;;;6.67;;
19255;SDS011;9762;52.490;13.410;2023-05-02T07:17:40;7.13;;;6.43;;
19255;SDS011;9762;52.490;13.410;2023-05-02T07:20:06;8.70;;;6.87;;
19255;SDS011;9762;52.490;13.410;2023-05-02T07:22:32;8.50;;;6.50;;
19255;SDS011;9762;52.490;13.410;2023-05-02T07:24:59;11.87;;;8.70;;
19255;SDS011;9762;52.490;13.410;2023-05-02T07:27:26;7.43;;;6.50;;
19255;SDS011;9762;52.490;13.410;2023-05-02T07:29:52;8.90;;;6.20;;
19255;SDS011;9762;52.490;13.410;2023-05-02T07:32:18;6.93;;;6.23;;
19255;SDS011;9762;52.490;13.410;2023-05-02T07:34:45;9.83;;;6.43;;
19255;SDS011;9762;52.490;13.410;2023-05-02T07:37:11;8.60;;;6.00;;
19255;SDS011;9762;52.490;13.410;2023-05-02T07:39:37;7.77;;;6.10;;
19255;SDS011;9762;52.490;13.410;2023-05-02T07:42:03;7.03;;;6.43;;
19255;SDS011;9762;52.490;13.410;2023-05-02T07:44:28;7.30;;;5.63;;
19255;SDS011;9762;52.490;13.410;2023-05-02T07:46:56;6.73;;;6.13;;
19255;SDS011;9762;52.490;13.410;2023-05-02T07:49:21;9.73;;;6.30;;
19255;SDS011;9762;52.490;13.410;2023-05-02T07:51:47;9.87;;;8.87;;
19255;SDS011;9762;52.490;13.410;2023-05-02T07:54:19;11.67;;;8.00;;
19255;SDS011;9762;52.490;13.410;2023-05-02T07:56:45;6.70;;;6.10;;
19255;SDS011;9762;52.490;13.410;2023-05-02T07:59:12;5.90;;;5.40;;
19255;SDS011;9762;52.490;13.410;2023-05-02T08:01:38;5.80;;;5.30;;
19255;SDS011;9762;52.490;13.410;2023-05-02T08:04:05;5.57;;;5.07;;
19255;SDS011;9762;52.490;13.410;2023-05-02T08:06:31;6.80;;;6.17;;
19255;SDS011;9762;52.490;13.410;2023-05-02T08:08:57;8.23;;;6.57;;
19255;SDS011;9762;52.490;13.410;2023-05-02T08:11:23;6.63;;;6.00;;
19255;SDS011;9762;52.490;13.410;2023-05-02T08:13:51;5.70;;;5.20;;
19255;SDS011;9762;52.490;13.410;2023-05-02T08:16:17;7.07;;;5.37;;
19255;SDS011;9762;52.490;13.410;2023-05-02T08:18:44;10.57;;;8.30;;
19255;SDS011;9762;52.490;13.410;2023-05-02T08:21:09;6.80;;;6.20;;
19255;SDS011;9762;52.490;13.410;2023-05-02T08:23:35;5.50;;;5.00;;
19255;SDS011;9762;52.490;13.410;2023-05-02T08:26:04;6.40;;;5.37;;
19255;SDS011;9762;52.490;13.410;2023-05-02T08:28:29;7.93;;;4.63;;
19255;SDS011;9762;52.490;13.410;2023-05-02T08:30:55;4.73;;;4.37;;
19255;SDS011;9762;52.490;13.410;2023-05-02T08:33:21;4.77;;;4.37;;
19255;SDS011;9762;52.490;13.410;2023-05-02T08:35:47;4.67;;;4.37;;
19255;SDS011;9762;52.490;13.410;2023-05-02T08:38:13;5.43;;;4.93;;
19255;SDS011;9762;52.490;13.410;2023-05-02T08:40:38;5.97;;;5.47;;
19255;SDS011;9762;52.490;13.410;2023-05-02T08:43:04;6.53;;;5.57;;
19255;SDS011;9762;52.490;13.410;2023-05-02T08:45:33;9.33;;;5.57;;
19255;SDS011;9762;52.490;13.410;2023-05-02T08:48:06;7.87;;;5.67;;
19255;SDS011;9762;52.490;13.410;2023-05-02T08:50:37;5.67;;;5.07;;
19255;SDS011;9762;52.490;13.410;2023-05-02T08:53:05;4.43;;;4.07;;
19255;SDS011;9762;52.490;13.410;2023-05-02T08:55:33;7.30;;;4.83;;
19255;SDS011;9762;52.490;13.410;2023-05-02T08:58:00;5.40;;;4.90;;
19255;SDS011;9762;52.490;13.410;2023-05-02T09:00:28;6.10;;;5.53;;
19255;SDS011;9762;52.490;13.410;2023-05-02T09:05:46;4.40;;;4.10;;
19255;SDS011;9762;52.490;13.410;2023-05-02T09:08:24;4.37;;;3.83;;
19255;SDS011;9762;52.490;13.410;2023-05-02T09:10:50;4.10;;;3.63;;
19255;SDS011;9762;52.490;13.410;2023-05-02T09:13:32;7.77;;;3.60;;
19255;SDS011;9762;52.490;13.410;2023-05-02T09:16:04;3.70;;;3.40;;
19255;SDS011;9762;52.490;13.410;2023-05-02T09:18:39;4.10;;;3.40;;
19255;SDS011;9762;52.490;13.410;2023-05-02T09:21:08;3.47;;;3.27;;
19255;SDS011;9762;52.490;13.410;2023-05-02T09:23:36;3.50;;;3.30;;
19255;SDS011;9762;52.490;13.410;2023-05-02T09:29:02;3.10;;;2.90;;
19255;SDS011;9762;52.490;13.410;2023-05-02T09:34:14;3.60;;;3.30;;
19255;SDS011;9762;52.490;13.410;2023-05-02T09:39:11;4.67;;;4.03;;
19255;SDS011;9762;52.490;13.410;2023-05-02T09:41:39;3.60;;;3.30;;
19255;SDS011;9762;52.490;13.410;2023-05-02T09:44:08;3.30;;;3.10;;
19255;SDS011;9762;52.490;13.410;2023-05-02T09:46:39;5.77;;;3.50;;
19255;SDS011;9762;52.490;13.410;2023-05-02T09:49:12;3.63;;;3.20;;
19255;SDS011;9762;52.490;13.410;2023-05-02T09:51:39;3.87;;;3.57;;
19255;SDS011;9762;52.490;13.410;2023-05-02T09:54:05;5.43;;;4.83;;
19255;SDS011;9762;52.490;13.410;2023-05-02T09:56:30;4.57;;;4.27;;
19255;SDS011;9762;52.490;13.410;2023-05-02T09:59:15;3.87;;;3.57;;
19255;SDS011;9762;52.490;13.410;2023-05-02T10:01:41;3.53;;;3.33;;
19255;SDS011;9762;52.490;13.410;2023-05-02T10:04:11;3.90;;;3.60;;
19255;SDS011;9762;52.490;13.410;2023-05-02T10:06:41;3.63;;;3.40;;
19255;SDS011;9762;52.490;13.410;2023-05-02T10:09:08;5.80;;;4.07;;
19255;SDS011;9762;52.490;13.410;2023-05-02T10:11:36;4.67;;;4.37;;
19255;SDS011;9762;52.490;13.410;2023-05-02T10:14:04;6.80;;;4.47;;
19255;SDS011;9762;52.490;13.410;2023-05-02T10:16:33;7.00;;;4.20;;
19255;SDS011;9762;52.490;13.410;2023-05-02T10:19:06;3.67;;;3.40;;
19255;SDS011;9762;52.490;13.410;2023-05-02T10:21:34;4.07;;;3.73;;
19255;SDS011;9762;52.490;13.410;2023-05-02T10:24:01;4.20;;;3.87;;
19255;SDS011;9762;52.490;13.410;2023-05-02T10:26:28;5.07;;;4.33;;
19255;SDS011;9762;52.490;13.410;2023-05-02T10:28:57;5.00;;;3.80;;
19255;SDS011;9762;52.490;13.410;2023-05-02T10:31:23;3.73;;;3.40;;
19255;SDS011;9762;52.490;13.410;2023-05-02T10:33:51;5.93;;;4.10;;
19255;SDS011;9762;52.490;13.410;2023-05-02T10:36:19;3.43;;;3.23;;
19255;SDS011;9762;52.490;13.410;2023-05-02T10:38:46;4.30;;;3.63;;
19255;SDS011;9762;52.490;13.410;2023-05-02T10:41:13;5.37;;;3.37;;
19255;SDS011;9762;52.490;13.410;2023-05-02T10:43:46;4.80;;;3.20;;
19255;SDS011;9762;52.490;13.410;2023-05-02T10:51:33;7.07;;;2.97;;
19255;SDS011;9762;52.490;13.410;2023-05-02T11:01:55;5.70;;;2.60;;
19255;SDS011;9762;52.490;13.410;2023-05-02T11:04:21;3.10;;;2.60;;
19255;SDS011;9762;52.490;13.410;2023-05-02T11:11:51;5.13;;;3.27;;
19255;SDS011;9762;52.490;13.410;2023-05-02T11:19:25;9.30;;;4.00;;
19255;SDS011;9762;52.490;13.410;2023-05-02T11:21:51;8.63;;;4.30;;
19255;SDS011;9762;52.490;13.410;2023-05-02T11:24:37;8.83;;;4.80;;
19255;SDS011;9762;52.490;13.410;2023-05-02T11:30:08;10.70;;;5.33;;
19255;SDS011;9762;52.490;13.410;2023-05-02T11:37:54;14.23;;;4.63;;
19255;SDS011;9762;52.490;13.410;2023-05-02T11:40:24;10.47;;;4.63;;
19255;SDS011;9762;52.490;13.410;2023-05-02T11:42:51;8.47;;;4.17;;
19255;SDS011;9762;52.490;13.410;2023-05-02T11:45:17;10.47;;;3.90;;
19255;SDS011;9762;52.490;13.410;2023-05-02T11:47:42;5.43;;;3.47;;
19255;SDS011;9762;52.490;13.410;2023-05-02T11:50:10;10.20;;;3.93;;
19255;SDS011;9762;52.490;13.410;2023-05-02T11:52:37;9.33;;;3.67;;
19255;SDS011;9762;52.490;13.410;2023-05-02T11:55:04;8.43;;;3.90;;
19255;SDS011;9762;52.490;13.410;2023-05-02T11:57:32;3.70;;;3.17;;
19255;SDS011;9762;52.490;13.410;2023-05-02T11:59:57;4.40;;;3.50;;
19255;SDS011;9762;52.490;13.410;2023-05-02T12:02:39;5.77;;;3.60;;
19255;SDS011;9762;52.490;13.410;2023-05-02T12:05:07;5.80;;;3.40;;
19255;SDS011;9762;52.490;13.410;2023-05-02T12:10:07;4.80;;;3.00;;
19255;SDS011;9762;52.490;13.410;2023-05-02T12:12:34;5.47;;;3.30;;
19255;SDS011;9762;52.490;13.410;2023-05-02T12:15:07;7.47;;;3.63;;
19255;SDS011;9762;52.490;13.410;2023-05-02T12:17:40;8.00;;;2.67;;
19255;SDS011;9762;52.490;13.410;2023-05-02T12:20:08;6.80;;;3.30;;
19255;SDS011;9762;52.490;13.410;2023-05-02T12:22:35;5.87;;;3.33;;
19255;SDS011;9762;52.490;13.410;2023-05-02T12:25:01;4.23;;;2.77;;
19255;SDS011;9762;52.490;13.410;2023-05-02T12:27:29;4.77;;;2.87;;
19255;SDS011;9762;52.490;13.410;2023-05-02T12:29:57;8.90;;;3.13;;
19255;SDS011;9762;52.490;13.410;2023-05-02T12:32:26;5.00;;;3.10;;
19255;SDS011;9762;52.490;13.410;2023-05-02T12:34:54;14.40;;;7.10;;
19255;SDS011;9762;52.490;13.410;2023-05-02T12:37:23;10.93;;;4.50;;
19255;SDS011;9762;52.490;13.410;2023-05-02T12:39:50;9.03;;;3.40;;
19255;SDS011;9762;52.490;13.410;2023-05-02T12:42:18;15.13;;;3.40;;
19255;SDS011;9762;52.490;13.410;2023-05-02T12:44:45;9.90;;;3.33;;
19255;SDS011;9762;52.490;13.410;2023-05-02T12:47:14;6.93;;;3.23;;
19255;SDS011;9762;52.490;13.410;2023-05-02T12:49:47;7.63;;;3.00;;
19255;SDS011;9762;52.490;13.410;2023-05-02T12:52:20;13.30;;;3.87;;
19255;SDS011;9762;52.490;13.410;2023-05-02T12:54:47;8.97;;;3.13;;
19255;SDS011;9762;52.490;13.410;2023-05-02T12:57:22;8.53;;;3.20;;
19255;SDS011;9762;52.490;13.410;2023-05-02T12:59:50;6.70;;;3.70;;
19255;SDS011;9762;52.490;13.410;2023-05-02T13:02:17;12.37;;;3.20;;
19255;SDS011;9762;52.490;13.410;2023-05-02T13:04:43;14.20;;;4.27;;
19255;SDS011;9762;52.490;13.410;2023-05-02T13:07:08;9.70;;;4.00;;
19255;SDS011;9762;52.490;13.410;2023-05-02T13:09:35;8.90;;;3.83;;
19255;SDS011;9762;52.490;13.410;2023-05-02T13:12:01;13.43;;;3.97;;
19255;SDS011;9762;52.490;13.410;2023-05-02T13:14:30;7.07;;;3.77;;
19255;SDS011;9762;52.490;13.410;2023-05-02T13:16:56;11.20;;;4.13;;
19255;SDS011;9762;52.490;13.410;2023-05-02T13:19:22;10.30;;;3.37;;
19255;SDS011;9762;52.490;13.410;2023-05-02T13:21:47;13.80;;;3.63;;
19255;SDS011;9762;52.490;13.410;2023-05-02T13:24:13;11.47;;;3.53;;
19255;SDS011;9762;52.490;13.410;2023-05-02T13:26:41;6.57;;;3.37;;
19255;SDS011;9762;52.490;13.410;2023-05-02T13:29:07;7.37;;;3.80;;
19255;SDS011;9762;52.490;13.410;2023-05-02T13:31:35;14.13;;;3.63;;
19255;SDS011;9762;52.490;13.410;2023-05-02T13:34:02;10.37;;;3.20;;
19255;SDS011;9762;52.490;13.410;2023-05-02T13:36:29;6.67;;;3.13;;
19255;SDS011;9762;52.490;13.410;2023-05-02T13:38:54;9.57;;;3.27;;
19255;SDS011;9762;52.490;13.410;2023-05-02T13:41:20;9.80;;;3.20;;
19255;SDS011;9762;52.490;13.410;2023-05-02T13:43:47;9.40;;;3.50;;
19255;SDS011;9762;52.490;13.410;2023-05-02T13:46:13;12.63;;;3.40;;
19255;SDS011;9762;52.490;13.410;2023-05-02T13:48:38;6.93;;;3.33;;
19255;SDS011;9762;52.490;13.410;2023-05-02T13:51:04;8.00;;;2.90;;
19255;SDS011;9762;52.490;13.410;2023-05-02T13:53:30;14.00;;;3.93;;
19255;SDS011;9762;52.490;13.410;2023-05-02T13:55:55;9.77;;;3.70;;
19255;SDS011;9762;52.490;13.410;2023-05-02T13:58:21;5.37;;;2.73;;
19255;SDS011;9762;52.490;13.410;2023-05-02T14:00:47;6.37;;;3.67;;
19255;SDS011;9762;52.490;13.410;2023-05-02T14:03:12;6.37;;;3.10;;
19255;SDS011;9762;52.490;13.410;2023-05-02T14:05:38;7.17;;;3.17;;
19255;SDS011;9762;52.490;13.410;2023-05-02T14:08:08;9.93;;;3.70;;
19255;SDS011;9762;52.490;13.410;2023-05-02T14:10:34;7.40;;;3.17;;
19255;SDS011;9762;52.490;13.410;2023-05-02T14:13:02;8.83;;;2.93;;
19255;SDS011;9762;52.490;13.410;2023-05-02T14:15:28;5.87;;;3.13;;
19255;SDS011;9762;52.490;13.410;2023-05-02T14:17:53;5.77;;;2.93;;
19255;SDS011;9762;52.490;13.410;2023-05-02T14:20:19;5.77;;;3.03;;
19255;SDS011;9762;52.490;13.410;2023-05-02T14:22:47;7.57;;;3.00;;
19255;SDS011;9762;52.490;13.410;2023-05-02T14:25:13;7.80;;;3.20;;
19255;SDS011;9762;52.490;13.410;2023-05-02T14:27:39;7.10;;;3.30;;
19255;SDS011;9762;52.490;13.410;2023-05-02T14:30:06;4.43;;;2.77;;
19255;SDS011;9762;52.490;13.410;2023-05-02T14:32:32;9.87;;;3.73;;
19255;SDS011;9762;52.490;13.410;2023-05-02T14:34:58;9.77;;;3.37;;
19255;SDS011;9762;52.490;13.410;2023-05-02T14:37:24;7.20;;;2.83;;
19255;SDS011;9762;52.490;13.410;2023-05-02T14:39:50;5.60;;;3.10;;
19255;SDS011;9762;52.490;13.410;2023-05-02T14:42:19;7.73;;;3.07;;
19255;SDS011;9762;52.490;13.410;2023-05-02T14:44:51;10.43;;;3.47;;
19255;SDS011;9762;52.490;13.410;2023-05-02T14:47:17;6.67;;;3.07;;
19255;SDS011;9762;52.490;13.410;2023-05-02T14:49:43;5.40;;;2.87;;
19255;SDS011;9762;52.490;13.410;2023-05-02T14:52:08;6.87;;;3.00;;
19255;SDS011;9762;52.490;13.410;2023-05-02T14:54:34;6.30;;;2.70;;
19255;SDS011;9762;52.490;13.410;2023-05-02T14:57:00;7.73;;;3.40;;
19255;SDS011;9762;52.490;13.410;2023-05-02T14:59:28;8.90;;;3.57;;
19255;SDS011;9762;52.490;13.410;2023-05-02T15:01:55;8.40;;;2.83;;
19255;SDS011;9762;52.490;13.410;2023-05-02T15:04:21;8.83;;;3.77;;
19255;SDS011;9762;52.490;13.410;2023-05-02T15:06:47;6.57;;;2.90;;
19255;SDS011;9762;52.490;13.410;2023-05-02T15:09:13;5.37;;;3.10;;
19255;SDS011;9762;52.490;13.410;2023-05-02T15:11:40;9.73;;;3.13;;
19255;SDS011;9762;52.490;13.410;2023-05-02T15:14:06;8.83;;;2.97;;
19255;SDS011;9762;52.490;13.410;2023-05-02T15:16:31;4.40;;;2.80;;
19255;SDS011;9762;52.490;13.410;2023-05-02T15:18:57;8.90;;;3.13;;
19255;SDS011;9762;52.490;13.410;2023-05-02T15:21:23;8.03;;;3.17;;
19255;SDS011;9762;52.490;13.410;2023-05-02T15:23:48;6.27;;;2.40;;
19255;SDS011;9762;52.490;13.410;2023-05-02T15:26:14;4.00;;;2.57;;
19255;SDS011;9762;52.490;13.410;2023-05-02T15:28:40;8.33;;;2.83;;
19255;SDS011;9762;52.490;13.410;2023-05-02T15:31:06;6.80;;;2.80;;
19255;SDS011;9762;52.490;13.410;2023-05-02T15:33:31;8.50;;;4.70;;
19255;SDS011;9762;52.490;13.410;2023-05-02T15:35:57;11.17;;;2.80;;
19255;SDS011;9762;52.490;13.410;2023-05-02T15:38:23;8.13;;;2.73;;
19255;SDS011;9762;52.490;13.410;2023-05-02T15:40:56;9.13;;;3.17;;
19255;SDS011;9762;52.490;13.410;2023-05-02T15:43:22;4.57;;;2.97;;
19255;SDS011;9762;52.490;13.410;2023-05-02T15:45:55;5.37;;;2.70;;
19255;SDS011;9762;52.490;13.410;2023-05-02T15:48:22;7.63;;;2.70;;